Time;durP1;ratioP1;P1;durP2;ratioP2;P2;SDS_P1;SDS_P2;PMS_P1;PMS_P2;Temp;Humidity;BMP_temperature;BMP_pressure;BME280_temperature;BME280_humidity;BME280_pressure;Samples;Min_cycle;Max_cycle;Signal;HPM_P1;HPM_P2
2023/01/29 00:07:47;;;;;;;10.95;7.53;;;8.50;83.40;;;;;;6334870;22;20021;-80
2023/01/29 00:18:19;;;;;;;10.98;7.97;;;8.70;83.50;;;;;;6211338;23;20003;-80
2023/01/29 00:49:11;;;;;;;10.90;7.82;;;8.60;83.50;;;;;;6171108;22;20012;-80
2023/01/29 01:07:33;;;;;;;11.60;8.50;;;8.60;83.50;;;;;;6177768;22;20027;-82
2023/01/29 01:38:43;;;;;;;11.48;8.13;;;8.60;83.40;;;;;;6151511;22;20005;-79
2023/01/29 01:44:27;;;;;;;;;;;8.70;83.50;;;;;;6149238;22;20037;-80
2023/01/29 01:51:13;;;;;;;11.95;8.45;;;8.70;83.50;;;;;;6177922;22;20000;-81
2023/01/29 02:24:20;;;;;;;13.02;9.00;;;8.60;83.50;;;;;;6149862;22;20001;-80
2023/01/29 02:34:21;;;;;;;12.65;8.80;;;8.70;83.60;;;;;;6297080;22;20007;-80
2023/01/29 02:37:08;;;;;;;12.60;8.73;;;8.60;83.60;;;;;;6306908;22;20007;-82
2023/01/29 02:39:41;;;;;;;12.98;8.82;;;8.60;83.50;;;;;;6309333;22;19988;-81
2023/01/29 02:42:30;;;;;;;13.27;8.88;;;8.70;83.50;;;;;;6286293;22;19992;-81
2023/01/29 02:45:15;;;;;;;11.95;8.73;;;8.60;83.40;;;;;;6305270;22;20003;-80
2023/01/29 02:47:53;;;;;;;12.95;8.93;;;8.60;83.50;;;;;;6278817;22;20059;-82
2023/01/29 02:50:33;;;;;;;13.27;8.27;;;8.50;83.40;;;;;;6248053;22;20011;-81
2023/01/29 02:53:03;;;;;;;12.15;8.50;;;8.50;83.40;;;;;;6247259;22;19992;-80
2023/01/29 02:55:46;;;;;;;11.85;8.70;;;9.00;83.60;;;;;;6223607;23;20008;-82
2023/01/29 02:58:32;;;;;;;12.02;8.90;;;8.60;83.40;;;;;;6249665;22;20013;-81
2023/01/29 03:01:13;;;;;;;12.88;9.60;;;8.50;83.40;;;;;;6247048;23;19988;-80
2023/01/29 03:03:46;;;;;;;12.60;8.80;;;9.50;84.00;;;;;;6247637;22;20056;-80
2023/01/29 03:06:24;;;;;;;11.95;8.45;;;8.70;83.50;;;;;;6246376;22;20008;-80
2023/01/29 03:09:04;;;;;;;12.38;8.60;;;8.60;83.40;;;;;;6222660;23;20025;-81
2023/01/29 03:11:40;;;;;;;11.95;8.80;;;8.60;83.40;;;;;;6246042;23;20031;-81
2023/01/29 03:14:23;;;;;;;13.10;9.23;;;8.60;83.40;;;;;;6247053;22;20000;-82
2023/01/29 03:16:53;;;;;;;13.60;9.18;;;8.20;83.20;;;;;;6246971;23;20000;-80
2023/01/29 03:19:35;;;;;;;12.93;9.02;;;8.60;83.30;;;;;;6274402;22;20004;-81
2023/01/29 03:22:07;;;;;;;13.05;9.13;;;8.50;83.30;;;;;;6248990;22;19989;-80
2023/01/29 03:33:21;;;;;;;13.10;9.27;;;8.60;83.50;;;;;;6258042;22;19999;-81
2023/01/29 03:35:55;;;;;;;13.88;9.95;;;8.60;83.40;;;;;;6242602;22;20001;-82
2023/01/29 03:38:28;;;;;;;13.88;9.70;;;8.40;83.30;;;;;;6215345;22;19993;-81
2023/01/29 03:41:04;;;;;;;14.23;10.05;;;8.60;83.40;;;;;;6193534;22;20024;-80
2023/01/29 03:44:02;;;;;;;13.80;10.13;;;8.10;83.10;;;;;;6216973;22;19996;-81
2023/01/29 03:50:01;;;;;;;13.05;9.35;;;8.40;83.30;;;;;;6243385;22;20007;-81
2023/01/29 03:52:50;;;;;;;14.45;10.05;;;8.50;83.30;;;;;;6215746;23;20016;-81
2023/01/29 03:55:40;;;;;;;13.65;9.75;;;8.50;83.30;;;;;;6216373;23;19992;-81
2023/01/29 03:58:09;;;;;;;;;;;9.10;83.70;;;;;;6237281;22;20004;-80
2023/01/29 04:00:45;;;;;;;13.20;9.30;;;8.50;83.30;;;;;;6243469;22;19931;-80
2023/01/29 04:03:58;;;;;;;13.20;9.50;;;8.50;83.40;;;;;;6213913;22;20146;-80
2023/01/29 04:06:30;;;;;;;13.02;9.02;;;8.60;83.50;;;;;;6121765;23;20018;-80
2023/01/29 04:09:10;;;;;;;14.48;10.20;;;8.50;83.40;;;;;;6177944;22;20028;-81
2023/01/29 04:11:42;;;;;;;15.10;11.00;;;8.70;83.60;;;;;;6212339;22;19989;-80
2023/01/29 04:14:13;;;;;;;;;;;8.60;83.50;;;;;;6217425;22;19993;-80
2023/01/29 04:16:47;;;;;;;13.98;9.70;;;8.60;83.40;;;;;;6216646;22;19895;-81
2023/01/29 04:19:13;;;;;;;14.35;9.98;;;8.60;83.40;;;;;;6216778;23;20001;-81
2023/01/29 04:21:40;;;;;;;14.68;10.23;;;8.70;83.50;;;;;;6216713;22;19989;-81
2023/01/29 04:24:09;;;;;;;14.15;10.30;;;8.70;83.40;;;;;;6242180;22;19988;-81
2023/01/29 04:26:59;;;;;;;14.85;10.63;;;8.40;83.30;;;;;;6215160;22;20009;-81
2023/01/29 04:30:10;;;;;;;14.75;10.35;;;8.60;83.40;;;;;;6217246;23;20012;-81
2023/01/29 04:33:12;;;;;;;14.20;10.10;;;8.80;83.60;;;;;;6241055;22;20011;-81
2023/01/29 04:36:00;;;;;;;15.63;10.57;;;8.60;83.50;;;;;;6270713;22;20000;-81
2023/01/29 04:39:00;;;;;;;15.15;10.23;;;8.70;83.60;;;;;;6247214;22;20022;-82
2023/01/29 04:42:26;;;;;;;14.80;10.40;;;8.50;83.50;;;;;;6246892;22;19988;-81
2023/01/29 04:45:36;;;;;;;14.75;10.23;;;8.50;83.40;;;;;;6246528;22;20008;-81
2023/01/29 04:48:36;;;;;;;14.13;10.25;;;8.60;83.50;;;;;;6180313;23;20041;-81
2023/01/29 04:51:08;;;;;;;;;;;8.50;83.30;;;;;;6272456;22;20000;-81
2023/01/29 04:53:58;;;;;;;15.10;10.18;;;8.90;83.50;;;;;;6221693;22;19894;-81
2023/01/29 04:56:50;;;;;;;13.90;9.65;;;8.40;83.30;;;;;;6272970;22;20007;-81
2023/01/29 04:59:24;;;;;;;14.80;10.15;;;8.60;83.40;;;;;;6273659;22;19995;-81
2023/01/29 05:01:53;;;;;;;14.68;10.60;;;8.50;83.80;;;;;;6246871;22;19992;-82
2023/01/29 05:04:22;;;;;;;15.18;10.82;;;8.50;83.40;;;;;;6223804;22;20060;-80
2023/01/29 05:06:50;;;;;;;15.70;10.95;;;8.60;83.40;;;;;;6247007;22;20028;-81
2023/01/29 05:09:18;;;;;;;15.23;10.52;;;8.90;83.50;;;;;;6247188;22;19988;-82
2023/01/29 05:11:49;;;;;;;15.32;10.93;;;8.70;83.30;;;;;;6247002;22;19992;-82
2023/01/29 05:14:19;;;;;;;15.75;11.10;;;8.60;83.40;;;;;;6272717;22;19996;-80
2023/01/29 05:16:54;;;;;;;14.82;10.35;;;8.40;83.30;;;;;;6240965;22;19995;-81
2023/01/29 05:19:20;;;;;;;15.93;10.68;;;8.70;83.50;;;;;;6242407;22;19993;-81
2023/01/29 05:21:49;;;;;;;15.85;11.32;;;8.40;83.30;;;;;;6245819;22;20056;-81
2023/01/29 05:24:45;;;;;;;15.50;10.90;;;8.50;83.30;;;;;;6267422;22;19992;-81
2023/01/29 05:30:05;;;;;;;15.95;11.57;;;8.40;83.20;;;;;;6272757;22;20155;-81
2023/01/29 05:32:32;;;;;;;16.20;11.30;;;8.40;83.20;;;;;;6246296;22;19988;-81
2023/01/29 05:35:08;;;;;;;15.23;11.02;;;8.50;83.20;;;;;;6261782;22;20007;-81
2023/01/29 05:37:36;;;;;;;15.55;11.32;;;8.60;83.30;;;;;;6261808;22;20004;-80
2023/01/29 05:40:04;;;;;;;17.17;12.18;;;8.50;83.10;;;;;;6220765;22;20023;-81
2023/01/29 05:42:30;;;;;;;15.45;11.40;;;8.50;83.30;;;;;;6270807;22;19992;-81
2023/01/29 05:44:57;;;;;;;16.15;11.32;;;8.50;83.40;;;;;;6247132;22;20052;-81
2023/01/29 05:47:23;;;;;;;16.55;11.27;;;8.50;83.40;;;;;;6270816;22;20442;-82
2023/01/29 05:49:51;;;;;;;16.02;11.27;;;8.50;83.30;;;;;;6271953;22;19996;-80
2023/01/29 05:54:55;;;;;;;16.60;11.68;;;8.50;83.30;;;;;;6146315;22;20009;-81
2023/01/29 05:57:27;;;;;;;16.02;11.38;;;8.50;83.30;;;;;;6124128;22;20005;-81
2023/01/29 06:06:52;;;;;;;15.43;11.02;;;8.50;83.30;;;;;;6042171;22;20055;-82
2023/01/29 06:09:38;;;;;;;17.10;11.77;;;8.60;83.40;;;;;;6118231;22;20010;-80
2023/01/29 06:12:05;;;;;;;16.05;11.25;;;8.60;83.80;;;;;;6090976;23;20010;-80
2023/01/29 06:15:04;;;;;;;16.75;11.98;;;8.50;83.80;;;;;;6108390;23;20379;-80
2023/01/29 06:17:29;;;;;;;16.42;11.90;;;8.70;83.40;;;;;;6070619;23;20010;-80
2023/01/29 06:19:55;;;;;;;17.50;12.43;;;8.30;83.10;;;;;;6070179;23;20086;-80
2023/01/29 06:22:20;;;;;;;16.38;11.63;;;8.60;83.40;;;;;;6071009;23;20512;-80
2023/01/29 06:28:55;;;;;;;;;;;;;;;;;;;;;
2023/01/29 06:38:49;;;;;;;;;;;;;;;;;;;;;
2023/01/29 06:41:26;;;;;;;16.25;11.55;;;8.50;83.30;;;;;;5974590;23;20526;-80
2023/01/29 06:44:12;;;;;;;17.52;12.18;;;8.40;83.20;;;;;;5951959;23;20458;-80
2023/01/29 06:47:31;;;;;;;;;;;;;;;;;;;;;
2023/01/29 06:51:03;;;;;;;17.25;12.20;;;8.50;83.30;;;;;;5946543;24;20080;-79
2023/01/29 07:14:15;;;;;;;;;;;;;;;;;;;;;
2023/01/29 07:20:52;;;;;;;16.60;11.55;;;8.30;83.10;;;;;;6035378;23;20014;-80
2023/01/29 07:39:54;;;;;;;17.20;12.05;;;8.40;83.00;;;;;;6127641;23;20068;-79
2023/01/29 07:49:51;;;;;;;18.08;12.70;;;8.50;83.00;;;;;;5947950;23;20024;-79
2023/01/29 07:52:20;;;;;;;17.90;13.02;;;8.50;83.20;;;;;;6070502;22;20539;-79
2023/01/29 07:54:45;;;;;;;18.70;13.30;;;8.60;83.10;;;;;;6095636;23;20340;-79
2023/01/29 07:57:36;;;;;;;;;;;;;;;;;;;;;
2023/01/29 08:00:59;;;;;;;18.23;12.73;;;8.40;83.00;;;;;;6120334;23;20086;-80
2023/01/29 08:03:48;;;;;;;19.83;12.93;;;8.40;83.20;;;;;;6067154;23;20444;-80
2023/01/29 08:06:18;;;;;;;18.67;12.77;;;8.50;83.00;;;;;;6069242;23;20013;-80
2023/01/29 08:08:54;;;;;;;;;;;;;;;;;;;;;
2023/01/29 08:22:33;;;;;;;18.40;12.63;;;8.50;83.00;;;;;;5987232;23;20011;-79
2023/01/29 08:24:58;;;;;;;19.15;13.70;;;8.50;83.10;;;;;;6086559;23;20017;-78
2023/01/29 08:27:24;;;;;;;18.23;12.95;;;8.50;83.10;;;;;;6063768;23;20014;-79
2023/01/29 08:29:55;;;;;;;17.55;12.13;;;8.50;83.20;;;;;;6062750;23;20007;-78
2023/01/29 08:32:21;;;;;;;18.23;13.48;;;8.60;83.20;;;;;;6062986;23;20002;-78
2023/01/29 08:34:46;;;;;;;17.58;12.63;;;8.50;83.20;;;;;;6063186;23;20475;-78
2023/01/29 08:37:12;;;;;;;19.10;13.23;;;8.50;83.20;;;;;;6063757;23;20010;-78
2023/01/29 08:39:37;;;;;;;18.85;13.35;;;8.50;83.30;;;;;;6063874;23;20014;-79
2023/01/29 08:42:05;;;;;;;19.13;13.40;;;9.80;83.90;;;;;;6063465;23;20084;-79
2023/01/29 08:44:31;;;;;;;18.58;13.10;;;8.60;83.30;;;;;;6064250;23;20006;-79
2023/01/29 08:46:56;;;;;;;19.17;13.65;;;8.60;83.40;;;;;;6063472;23;20017;-79
2023/01/29 08:49:22;;;;;;;18.58;13.43;;;8.40;83.30;;;;;;6063634;23;20511;-78
2023/01/29 08:51:50;;;;;;;18.58;13.35;;;8.60;83.30;;;;;;6063619;23;20063;-79
2023/01/29 08:54:15;;;;;;;20.80;13.88;;;9.40;83.70;;;;;;6202503;23;20012;-79
2023/01/29 08:56:41;;;;;;;19.33;13.45;;;8.50;83.30;;;;;;6209611;23;20005;-79
2023/01/29 08:59:11;;;;;;;19.30;13.38;;;8.50;83.10;;;;;;6209361;23;20004;-79
2023/01/29 09:01:41;;;;;;;20.58;13.48;;;8.70;82.90;;;;;;6207271;23;20011;-79
2023/01/29 09:04:09;;;;;;;20.58;14.25;;;8.40;82.80;;;;;;6208103;23;20004;-79
2023/01/29 09:06:46;;;;;;;23.58;15.18;;;8.50;82.80;;;;;;6217017;23;20013;-79
2023/01/29 09:09:47;;;;;;;24.33;15.20;;;8.40;82.20;;;;;;6214961;23;20040;-79
2023/01/29 09:12:37;;;;;;;25.35;15.38;;;8.50;81.90;;;;;;6189106;23;20005;-80
2023/01/29 09:15:06;;;;;;;30.90;17.55;;;8.80;81.90;;;;;;6215624;23;20431;-79
2023/01/29 09:17:41;;;;;;;29.13;17.92;;;8.40;81.00;;;;;;6214754;23;20005;-80
2023/01/29 09:20:18;;;;;;;28.73;18.20;;;8.50;81.20;;;;;;6213163;23;20009;-79
2023/01/29 10:09:15;;;;;;;32.28;21.02;;;8.60;77.50;;;;;;6113240;23;20356;-77
2023/01/29 10:12:05;;;;;;;38.17;20.70;;;8.60;78.20;;;;;;6187702;23;20099;-79
2023/01/29 10:14:31;;;;;;;31.40;21.13;;;8.60;78.50;;;;;;6211699;23;20028;-78
2023/01/29 10:17:36;;;;;;;35.35;21.45;;;8.70;78.60;;;;;;6213178;23;20499;-79
2023/01/29 10:20:17;;;;;;;34.38;20.60;;;8.70;78.70;;;;;;6214928;23;20047;-79
2023/01/29 10:22:55;;;;;;;30.50;19.73;;;8.80;78.90;;;;;;6213318;23;20008;-82
2023/01/29 10:25:21;;;;;;;29.83;19.83;;;8.80;79.20;;;;;;6213250;23;20046;-81
2023/01/29 10:27:51;;;;;;;29.83;19.70;;;8.90;79.40;;;;;;6213265;23;20005;-80
2023/01/29 10:30:38;;;;;;;30.63;19.45;;;8.90;79.50;;;;;;6213538;23;20007;-80
2023/01/29 10:33:05;;;;;;;29.23;19.05;;;8.90;79.60;;;;;;6213236;23;20088;-81
2023/01/29 10:35:36;;;;;;;26.48;18.13;;;9.00;79.80;;;;;;6213076;23;20051;-79
2023/01/29 10:38:25;;;;;;;29.35;18.88;;;9.00;79.90;;;;;;6215263;23;20394;-78
2023/01/29 10:41:00;;;;;;;28.48;18.35;;;9.10;80.10;;;;;;6215120;23;20009;-80
2023/01/29 10:43:40;;;;;;;27.27;19.02;;;9.10;80.10;;;;;;6215293;23;20502;-80
2023/01/29 10:46:20;;;;;;;26.73;17.48;;;9.10;80.10;;;;;;6215031;23;20059;-81
2023/01/29 10:48:56;;;;;;;28.35;19.15;;;9.20;80.30;;;;;;6215072;23;20004;-79
2023/01/29 10:51:44;;;;;;;25.77;17.80;;;9.10;80.50;;;;;;6214899;23;20004;-80
2023/01/29 10:54:19;;;;;;;27.10;17.80;;;9.20;80.70;;;;;;6215097;23;20070;-79
2023/01/29 10:57:00;;;;;;;27.27;17.08;;;9.10;80.70;;;;;;6216508;23;20383;-80
2023/01/29 10:59:58;;;;;;;28.35;17.58;;;9.10;80.90;;;;;;6215259;23;20123;-82
2023/01/29 11:02:24;;;;;;;27.92;18.35;;;9.10;80.80;;;;;;6214748;23;20001;-81
2023/01/29 11:04:49;;;;;;;28.38;18.33;;;9.10;80.80;;;;;;6215140;23;20007;-80
2023/01/29 11:07:18;;;;;;;26.73;17.20;;;9.10;81.40;;;;;;6216532;23;20083;-79
2023/01/29 11:10:16;;;;;;;29.58;17.58;;;9.10;81.00;;;;;;6215073;23;20000;-79
2023/01/29 11:12:42;;;;;;;25.17;16.73;;;9.10;81.00;;;;;;6119567;23;20075;-80
2023/01/29 11:15:31;;;;;;;23.90;16.83;;;9.10;81.00;;;;;;6096173;23;20044;-79
2023/01/29 11:18:14;;;;;;;25.58;17.05;;;9.10;81.70;;;;;;6096453;23;20005;-80
2023/01/29 11:20:43;;;;;;;24.23;16.60;;;9.10;81.20;;;;;;6121518;23;20002;-81
2023/01/29 11:23:32;;;;;;;24.67;16.55;;;9.10;81.30;;;;;;6121594;23;20009;-79
2023/01/29 11:25:59;;;;;;;23.42;16.40;;;9.00;81.20;;;;;;6094827;23;20105;-78
2023/01/29 11:28:46;;;;;;;24.15;16.75;;;9.00;81.20;;;;;;6096472;23;20356;-79
2023/01/29 11:31:15;;;;;;;25.15;16.77;;;9.00;81.30;;;;;;6096852;23;20009;-78
2023/01/29 11:33:41;;;;;;;23.90;16.58;;;9.10;81.40;;;;;;6096420;23;20060;-80
2023/01/29 11:36:37;;;;;;;24.27;16.48;;;9.00;81.30;;;;;;6095910;23;20009;-79
2023/01/29 11:39:17;;;;;;;25.90;16.90;;;9.00;81.30;;;;;;6120387;23;20006;-79
2023/01/29 11:41:56;;;;;;;23.42;15.98;;;9.00;81.30;;;;;;6096282;23;20002;-80
2023/01/29 11:44:28;;;;;;;22.60;15.27;;;9.00;81.50;;;;;;6096506;23;20006;-81
2023/01/29 11:46:55;;;;;;;25.98;16.05;;;9.00;81.40;;;;;;6120602;23;20008;-79
2023/01/29 11:49:29;;;;;;;29.15;15.52;;;9.00;81.20;;;;;;6121960;23;20060;-81
2023/01/29 11:51:55;;;;;;;26.83;16.10;;;9.00;81.40;;;;;;6096413;23;20331;-80
2023/01/29 11:54:27;;;;;;;26.80;16.90;;;9.10;81.50;;;;;;6122221;23;20073;-79
2023/01/29 11:56:53;;;;;;;;;;;9.10;81.10;;;;;;6091249;23;20304;-80
2023/01/29 11:59:43;;;;;;;26.98;15.70;;;9.10;81.00;;;;;;6091185;23;20365;-81
2023/01/29 12:02:22;;;;;;;25.27;15.87;;;9.10;81.00;;;;;;6090976;23;20440;-78
2023/01/29 12:04:48;;;;;;;22.77;15.15;;;9.10;81.10;;;;;;6114188;23;20097;-78
2023/01/29 12:07:16;;;;;;;23.48;15.38;;;9.10;81.10;;;;;;6114143;23;20017;-79
2023/01/29 12:09:53;;;;;;;24.33;15.25;;;9.10;81.20;;;;;;6090647;23;20441;-78
2023/01/29 12:12:38;;;;;;;21.77;14.73;;;9.00;81.20;;;;;;6116315;23;20460;-79
2023/01/29 12:15:20;;;;;;;21.42;14.85;;;9.10;81.30;;;;;;6090147;23;20002;-77
2023/01/29 12:17:51;;;;;;;;;;;9.00;81.30;;;;;;6115000;23;20010;-76
2023/01/29 12:20:27;;;;;;;25.50;15.60;;;9.00;81.40;;;;;;6090338;23;19909;-80
2023/01/29 12:22:57;;;;;;;23.02;15.57;;;9.00;81.30;;;;;;6090113;23;20059;-77
2023/01/29 12:25:36;;;;;;;22.38;14.88;;;9.00;81.30;;;;;;6088530;23;20010;-79
2023/01/29 12:28:12;;;;;;;21.70;14.32;;;8.90;81.50;;;;;;6088196;23;20014;-78
2023/01/29 12:31:06;;;;;;;25.08;14.82;;;9.00;81.50;;;;;;6087593;23;20014;-79
2023/01/29 12:33:49;;;;;;;23.23;14.68;;;8.90;81.60;;;;;;6090556;23;20006;-79
2023/01/29 12:36:23;;;;;;;23.02;14.85;;;8.90;81.60;;;;;;6091091;23;20013;-79
2023/01/29 12:38:49;;;;;;;22.00;14.52;;;8.90;81.70;;;;;;6091247;23;20101;-81
2023/01/29 12:41:33;;;;;;;20.60;13.77;;;8.90;81.70;;;;;;6090420;23;20049;-78
2023/01/29 12:44:06;;;;;;;19.20;13.43;;;8.90;81.80;;;;;;6092091;23;20013;-80
2023/01/29 12:46:38;;;;;;;20.90;14.55;;;8.90;81.80;;;;;;6092008;23;20014;-77
2023/01/29 12:49:10;;;;;;;21.38;14.13;;;8.90;81.80;;;;;;6092997;23;20017;-79
2023/01/29 12:51:53;;;;;;;21.15;13.70;;;8.90;81.90;;;;;;6118255;23;20009;-79
2023/01/29 12:54:25;;;;;;;22.33;14.27;;;8.90;82.00;;;;;;6092682;23;20057;-77
2023/01/29 12:56:54;;;;;;;22.10;14.00;;;8.90;82.00;;;;;;6110225;23;20041;-78
2023/01/29 12:59:35;;;;;;;21.35;14.15;;;8.90;82.00;;;;;;6111963;23;20005;-78
2023/01/29 13:02:28;;;;;;;20.77;14.05;;;8.90;82.00;;;;;;6086166;23;20006;-78
2023/01/29 13:04:59;;;;;;;22.23;14.00;;;8.80;81.90;;;;;;6087892;23;20013;-78
2023/01/29 13:07:30;;;;;;;21.97;13.87;;;8.80;81.80;;;;;;6113512;23;20075;-78
2023/01/29 13:10:06;;;;;;;19.85;13.48;;;8.80;82.00;;;;;;6087106;23;20249;-78
2023/01/29 13:12:32;;;;;;;21.73;13.85;;;8.80;82.00;;;;;;6087503;23;20006;-78
2023/01/29 13:15:02;;;;;;;19.70;13.85;;;8.80;82.20;;;;;;6087358;23;20010;-79
2023/01/29 13:17:43;;;;;;;19.15;13.15;;;8.80;82.20;;;;;;6113149;23;20219;-79
2023/01/29 13:20:21;;;;;;;18.92;12.55;;;8.80;82.30;;;;;;6112654;23;20016;-79
2023/01/29 13:22:48;;;;;;;20.48;13.23;;;8.80;82.30;;;;;;6087380;23;20010;-78
2023/01/29 13:25:17;;;;;;;18.13;12.30;;;8.80;82.30;;;;;;6112671;23;20013;-78
2023/01/29 13:27:46;;;;;;;19.33;13.07;;;8.80;82.30;;;;;;6087146;23;20032;-79
2023/01/29 13:30:33;;;;;;;19.33;12.80;;;8.70;82.40;;;;;;6087099;23;20038;-79
2023/01/29 13:33:08;;;;;;;18.80;13.32;;;8.80;82.50;;;;;;6087004;23;20059;-78
2023/01/29 13:35:40;;;;;;;18.75;12.68;;;8.80;82.40;;;;;;6087366;23;20391;-79
2023/01/29 13:38:28;;;;;;;19.35;13.20;;;8.70;82.50;;;;;;6113026;23;20060;-78
2023/01/29 13:40:59;;;;;;;19.58;12.48;;;8.70;82.50;;;;;;6113699;23;20006;-79
2023/01/29 13:43:36;;;;;;;20.83;13.45;;;8.70;82.50;;;;;;6087751;23;20006;-79
2023/01/29 13:46:16;;;;;;;18.90;12.57;;;8.70;82.50;;;;;;6112881;23;20056;-78
2023/01/29 13:48:45;;;;;;;19.70;13.13;;;8.70;82.50;;;;;;6112021;23;20010;-79
2023/01/29 13:51:18;;;;;;;19.02;13.43;;;8.70;82.50;;;;;;6087381;23;20421;-79
2023/01/29 13:53:53;;;;;;;18.60;12.40;;;8.70;82.60;;;;;;6087352;23;20068;-79
2023/01/29 13:56:34;;;;;;;18.42;12.38;;;8.70;82.60;;;;;;6086918;23;20096;-78
2023/01/29 13:59:01;;;;;;;17.85;12.38;;;8.70;82.60;;;;;;6086732;23;20045;-78
2023/01/29 14:01:45;;;;;;;19.83;12.60;;;8.70;82.60;;;;;;6086680;23;20013;-79
2023/01/29 14:04:31;;;;;;;18.10;12.50;;;8.70;82.60;;;;;;6086910;23;20032;-77
2023/01/29 14:06:58;;;;;;;18.30;12.27;;;8.70;82.60;;;;;;6085976;23;20010;-79
2023/01/29 14:09:49;;;;;;;17.83;12.45;;;8.70;82.60;;;;;;6086788;23;20006;-79
2023/01/29 14:12:21;;;;;;;19.38;11.93;;;8.70;82.60;;;;;;6087528;23;20445;-78
2023/01/29 14:14:46;;;;;;;19.63;12.77;;;8.70;82.60;;;;;;6114121;23;20006;-79
2023/01/29 14:17:16;;;;;;;18.88;12.52;;;8.70;82.70;;;;;;6087702;23;20006;-78
2023/01/29 14:19:47;;;;;;;19.45;13.18;;;8.60;82.60;;;;;;6087855;23;20063;-80
2023/01/29 14:22:27;;;;;;;18.25;12.30;;;8.70;82.70;;;;;;6088055;23;20114;-78
2023/01/29 14:24:57;;;;;;;19.17;12.00;;;8.60;82.70;;;;;;6088062;23;20042;-80
2023/01/29 14:27:26;;;;;;;18.10;12.32;;;8.70;82.70;;;;;;6114305;23;20055;-81
2023/01/29 14:29:59;;;;;;;19.20;12.23;;;8.60;82.60;;;;;;6088234;23;20081;-79
2023/01/29 14:32:25;;;;;;;18.65;12.23;;;8.60;82.60;;;;;;6087939;23;20010;-80
2023/01/29 14:35:04;;;;;;;17.77;12.35;;;8.60;82.50;;;;;;6089673;23;20002;-78
2023/01/29 14:37:34;;;;;;;18.38;11.98;;;8.60;82.60;;;;;;6114940;23;20093;-79
2023/01/29 14:40:18;;;;;;;18.75;12.40;;;8.60;82.60;;;;;;6089748;23;20399;-78
2023/01/29 14:43:03;;;;;;;18.65;12.18;;;8.60;82.70;;;;;;6115638;23;20013;-79
2023/01/29 14:45:35;;;;;;;17.60;11.13;;;8.60;82.60;;;;;;6096154;23;20006;-77
2023/01/29 14:48:09;;;;;;;16.42;11.23;;;8.60;82.60;;;;;;6123752;23;20077;-80
2023/01/29 14:50:34;;;;;;;16.48;10.95;;;8.60;82.70;;;;;;6097426;23;20078;-78
2023/01/29 14:53:22;;;;;;;18.65;12.55;;;8.60;82.60;;;;;;6090271;23;20531;-77
2023/01/29 14:56:11;;;;;;;17.75;11.73;;;8.60;82.60;;;;;;6096843;23;20049;-78
2023/01/29 14:58:52;;;;;;;17.67;11.50;;;8.60;82.50;;;;;;6097258;23;20006;-78
2023/01/29 15:01:36;;;;;;;17.75;11.60;;;8.60;82.60;;;;;;6122556;23;20008;-80
2023/01/29 15:04:04;;;;;;;17.67;12.05;;;8.60;82.60;;;;;;6096716;23;20016;-78
2023/01/29 15:06:46;;;;;;;16.83;11.38;;;8.60;82.70;;;;;;6096733;23;20333;-77
2023/01/29 15:09:52;;;;;;;16.75;11.32;;;8.60;82.70;;;;;;6096020;23;20059;-78
2023/01/29 15:12:45;;;;;;;17.52;11.45;;;8.60;82.70;;;;;;6089666;23;20180;-78
2023/01/29 15:15:16;;;;;;;17.35;11.50;;;8.60;82.70;;;;;;6095066;23;20017;-79
2023/01/29 15:18:02;;;;;;;16.55;10.90;;;8.60;82.70;;;;;;6095729;23;20086;-78
2023/01/29 15:20:34;;;;;;;17.10;11.55;;;8.60;82.70;;;;;;6095518;23;20021;-78
2023/01/29 15:23:02;;;;;;;17.88;11.80;;;8.60;82.70;;;;;;6093522;23;20013;-77
2023/01/29 15:25:33;;;;;;;17.60;11.70;;;8.60;82.70;;;;;;6094001;23;20436;-78
2023/01/29 15:28:00;;;;;;;18.10;11.73;;;8.60;82.70;;;;;;6095560;23;20016;-77
2023/01/29 15:30:32;;;;;;;17.83;11.68;;;8.60;82.80;;;;;;6095114;23;20064;-78
2023/01/29 15:32:58;;;;;;;18.02;11.57;;;8.60;82.70;;;;;;6093055;23;20084;-78
2023/01/29 15:35:33;;;;;;;17.63;11.32;;;8.60;82.70;;;;;;6094719;23;20093;-78
2023/01/29 15:38:12;;;;;;;16.40;11.15;;;8.60;82.80;;;;;;6095168;23;20344;-78
2023/01/29 15:40:38;;;;;;;17.05;11.35;;;8.60;82.90;;;;;;6095395;23;20010;-77
2023/01/29 15:43:22;;;;;;;16.45;10.77;;;8.60;82.80;;;;;;6121036;23;20033;-78
2023/01/29 15:45:49;;;;;;;17.55;11.75;;;8.60;82.80;;;;;;6095074;23;20329;-77
2023/01/29 15:48:19;;;;;;;17.75;11.80;;;8.50;82.70;;;;;;6095109;23;20429;-77
2023/01/29 15:50:45;;;;;;;18.20;11.55;;;8.60;82.70;;;;;;6120025;23;20088;-79
2023/01/29 15:53:18;;;;;;;17.13;11.60;;;8.50;82.80;;;;;;6121324;23;20381;-78
2023/01/29 15:55:46;;;;;;;17.75;11.70;;;8.60;82.80;;;;;;6095112;23;20003;-79
2023/01/29 15:58:17;;;;;;;16.88;10.82;;;8.60;82.80;;;;;;6095036;23;20029;-77
2023/01/29 16:00:51;;;;;;;17.40;10.77;;;8.60;82.80;;;;;;6095134;23;20052;-78
2023/01/29 16:03:22;;;;;;;16.88;11.10;;;8.50;82.80;;;;;;6093108;23;20006;-77
2023/01/29 16:05:47;;;;;;;16.13;11.13;;;8.50;82.80;;;;;;6094090;23;20344;-78
2023/01/29 16:08:14;;;;;;;17.23;11.40;;;8.50;82.80;;;;;;6119772;23;20081;-78
2023/01/29 16:10:41;;;;;;;18.02;11.38;;;8.50;82.80;;;;;;6121064;22;20181;-79
2023/01/29 16:13:18;;;;;;;16.27;10.60;;;8.50;82.80;;;;;;6096470;23;20006;-78
2023/01/29 16:16:03;;;;;;;16.02;10.57;;;8.60;82.90;;;;;;6099827;23;20008;-79
2023/01/29 16:18:37;;;;;;;15.68;10.93;;;8.50;82.90;;;;;;6101993;23;20017;-79
2023/01/29 16:21:11;;;;;;;17.70;11.27;;;8.50;82.90;;;;;;6101927;23;20010;-79
2023/01/29 16:23:48;;;;;;;16.98;11.30;;;8.50;82.90;;;;;;6103565;23;20014;-78
2023/01/29 16:26:22;;;;;;;16.17;10.90;;;8.50;82.80;;;;;;6104089;23;20056;-79
2023/01/29 16:28:48;;;;;;;17.58;10.55;;;8.50;82.70;;;;;;6100357;23;20014;-76
2023/01/29 16:31:22;;;;;;;16.67;11.27;;;8.50;82.70;;;;;;6120385;23;20006;-75
2023/01/29 16:33:48;;;;;;;16.80;10.77;;;8.50;82.70;;;;;;6094359;23;20002;-76
2023/01/29 16:36:26;;;;;;;16.73;11.02;;;8.50;82.30;;;;;;6094355;23;20006;-76
2023/01/29 16:39:01;;;;;;;17.25;11.63;;;8.50;82.10;;;;;;6096049;23;20013;-80
2023/01/29 16:41:29;;;;;;;17.13;11.45;;;8.50;82.00;;;;;;6088132;23;20693;-79
2023/01/29 16:44:01;;;;;;;18.70;11.48;;;8.50;82.20;;;;;;6094957;23;20485;-75
2023/01/29 16:46:35;;;;;;;16.80;11.32;;;8.50;82.20;;;;;;6094705;23;20013;-78
2023/01/29 16:49:21;;;;;;;19.52;12.23;;;8.50;82.30;;;;;;6094157;23;20010;-76
2023/01/29 16:51:46;;;;;;;17.52;10.98;;;8.50;82.30;;;;;;6094182;23;20052;-77
2023/01/29 16:54:17;;;;;;;18.08;11.57;;;8.50;82.40;;;;;;6097840;23;20387;-77
2023/01/29 16:56:45;;;;;;;18.20;11.20;;;8.50;82.30;;;;;;6120343;23;20013;-75
2023/01/29 16:59:40;;;;;;;17.67;12.15;;;8.50;82.30;;;;;;6093210;23;20096;-79
2023/01/29 17:02:24;;;;;;;17.15;11.40;;;8.50;82.30;;;;;;6120153;23;20147;-74
2023/01/29 17:04:52;;;;;;;17.10;11.20;;;8.50;82.20;;;;;;6120127;23;20006;-78
2023/01/29 17:07:21;;;;;;;17.05;11.02;;;8.50;82.20;;;;;;6092932;23;20104;-78
2023/01/29 17:09:53;;;;;;;18.10;12.35;;;8.50;82.10;;;;;;6094007;23;20411;-77
2023/01/29 17:12:22;;;;;;;17.38;12.27;;;8.50;82.20;;;;;;6225217;23;20170;-77
2023/01/29 17:15:03;;;;;;;18.33;11.85;;;8.50;82.20;;;;;;6244284;23;20000;-78
2023/01/29 17:17:30;;;;;;;20.80;12.45;;;8.50;82.00;;;;;;6245227;23;20008;-77
2023/01/29 17:19:57;;;;;;;17.42;11.18;;;8.50;81.40;;;;;;6244649;23;20012;-79
2023/01/29 17:22:23;;;;;;;19.13;12.27;;;8.50;81.50;;;;;;6248672;22;20008;-79
2023/01/29 17:24:51;;;;;;;19.75;11.65;;;8.50;81.80;;;;;;6248034;22;20022;-78
2023/01/29 17:27:19;;;;;;;16.45;11.10;;;8.50;82.40;;;;;;6249686;22;19996;-83
2023/01/29 17:29:45;;;;;;;19.48;12.15;;;8.50;82.00;;;;;;6251408;23;20004;-79
2023/01/29 17:32:11;;;;;;;19.65;12.02;;;8.50;82.10;;;;;;6252353;22;20338;-78
2023/01/29 17:34:37;;;;;;;21.15;12.40;;;8.50;82.10;;;;;;6249558;23;20135;-78
2023/01/29 17:37:02;;;;;;;17.50;11.90;;;8.50;82.20;;;;;;6247024;23;20008;-75
2023/01/29 17:39:28;;;;;;;19.98;12.60;;;8.50;82.20;;;;;;6254416;23;20195;-79
2023/01/29 17:41:57;;;;;;;19.35;11.95;;;8.50;82.30;;;;;;6250552;22;19996;-78
2023/01/29 17:44:26;;;;;;;16.83;11.25;;;8.40;82.30;;;;;;6245870;23;20000;-77
2023/01/29 17:46:52;;;;;;;21.30;12.02;;;8.50;82.30;;;;;;6245369;22;20008;-75
2023/01/29 17:49:31;;;;;;;17.75;11.23;;;8.50;82.40;;;;;;6243801;23;20000;-79
2023/01/29 17:51:57;;;;;;;16.70;11.82;;;8.50;82.40;;;;;;6245257;22;20339;-78
2023/01/29 17:54:23;;;;;;;18.83;11.82;;;8.50;82.40;;;;;;6249297;22;20000;-76
2023/01/29 17:56:49;;;;;;;17.02;11.80;;;8.50;82.40;;;;;;6248339;23;20131;-78
2023/01/29 17:59:21;;;;;;;17.38;11.50;;;8.50;82.50;;;;;;6252219;23;20493;-79
2023/01/29 18:01:47;;;;;;;18.17;12.10;;;8.40;82.30;;;;;;6253039;22;20054;-79
2023/01/29 18:04:13;;;;;;;17.15;11.52;;;8.50;82.50;;;;;;6250697;23;20000;-83
2023/01/29 18:06:39;;;;;;;16.98;11.93;;;8.40;82.40;;;;;;6252252;23;20091;-79